<?xml version="1.0" encoding="UTF-8" standalone="no" ?>
<gpx xmlns="http://www.topografix.com/GPX/1/1" xmlns:xsi="http://www.w3.org/2001/XMLSchema-instance" xsi:schemaLocation="http://www.topografix.com/GPX/1/1 http://www.topografix.com/GPX/1/1/gpx.xsd" version="1.1" creator="VisuGPX - https://www.visugpx.com">
  <metadata>
    <name>Randonnée au Cailar (Gard)</name>
    <desc><![CDATA[randonnée faite par ANR34 au 1er trimestre 2023]]></desc>
  </metadata>
  <trk>
    <name><![CDATA[Randonnée du 26/01/2023 à 10:12]]></name>
    <trkseg>
      <trkpt lat="43.67206" lon="4.23541">
        <ele>23</ele>
        <time>2023-01-26T10:45:57+01:00</time>
      </trkpt>
      <trkpt lat="43.6722" lon="4.23568">
        <ele>14</ele>
        <time>2023-01-26T10:46:22+01:00</time>
      </trkpt>
      <trkpt lat="43.67234" lon="4.23595">
        <ele>12</ele>
        <time>2023-01-26T10:46:44+01:00</time>
      </trkpt>
      <trkpt lat="43.67252" lon="4.23616">
        <ele>12</ele>
        <time>2023-01-26T10:47:08+01:00</time>
      </trkpt>
      <trkpt lat="43.6726" lon="4.23646">
        <ele>16</ele>
        <time>2023-01-26T10:47:38+01:00</time>
      </trkpt>
      <trkpt lat="43.67278" lon="4.23668">
        <ele>21</ele>
        <time>2023-01-26T10:47:58+01:00</time>
      </trkpt>
      <trkpt lat="43.67297" lon="4.23685">
        <ele>24</ele>
        <time>2023-01-26T10:48:25+01:00</time>
      </trkpt>
      <trkpt lat="43.67294" lon="4.23716">
        <ele>23</ele>
        <time>2023-01-26T10:48:57+01:00</time>
      </trkpt>
      <trkpt lat="43.67278" lon="4.23738">
        <ele>25</ele>
        <time>2023-01-26T10:49:18+01:00</time>
      </trkpt>
      <trkpt lat="43.67264" lon="4.23764">
        <ele>29</ele>
        <time>2023-01-26T10:49:41+01:00</time>
      </trkpt>
      <trkpt lat="43.67268" lon="4.23797">
        <ele>31</ele>
        <time>2023-01-26T10:50:06+01:00</time>
      </trkpt>
      <trkpt lat="43.67262" lon="4.23827">
        <ele>28</ele>
        <time>2023-01-26T10:50:29+01:00</time>
      </trkpt>
      <trkpt lat="43.67253" lon="4.23857">
        <ele>25</ele>
        <time>2023-01-26T10:50:42+01:00</time>
      </trkpt>
      <trkpt lat="43.6725" lon="4.23889">
        <ele>17</ele>
        <time>2023-01-26T10:51:10+01:00</time>
      </trkpt>
      <trkpt lat="43.67239" lon="4.23915">
        <ele>14</ele>
        <time>2023-01-26T10:51:31+01:00</time>
      </trkpt>
      <trkpt lat="43.67233" lon="4.23946">
        <ele>18</ele>
        <time>2023-01-26T10:51:51+01:00</time>
      </trkpt>
      <trkpt lat="43.67218" lon="4.23971">
        <ele>16</ele>
        <time>2023-01-26T10:52:10+01:00</time>
      </trkpt>
      <trkpt lat="43.67204" lon="4.23997">
        <ele>14</ele>
        <time>2023-01-26T10:52:28+01:00</time>
      </trkpt>
      <trkpt lat="43.67191" lon="4.24024">
        <ele>9</ele>
        <time>2023-01-26T10:52:47+01:00</time>
      </trkpt>
      <trkpt lat="43.67178" lon="4.2405">
        <ele>6</ele>
        <time>2023-01-26T10:53:07+01:00</time>
      </trkpt>
      <trkpt lat="43.67166" lon="4.24077">
        <ele>5</ele>
        <time>2023-01-26T10:53:32+01:00</time>
      </trkpt>
      <trkpt lat="43.67155" lon="4.24104">
        <ele>8</ele>
        <time>2023-01-26T10:53:54+01:00</time>
      </trkpt>
      <trkpt lat="43.67143" lon="4.24133">
        <ele>7</ele>
        <time>2023-01-26T10:54:14+01:00</time>
      </trkpt>
      <trkpt lat="43.67134" lon="4.24162">
        <ele>9</ele>
        <time>2023-01-26T10:54:34+01:00</time>
      </trkpt>
      <trkpt lat="43.67125" lon="4.24193">
        <ele>8</ele>
        <time>2023-01-26T10:54:57+01:00</time>
      </trkpt>
      <trkpt lat="43.67116" lon="4.24221">
        <ele>11</ele>
        <time>2023-01-26T10:55:19+01:00</time>
      </trkpt>
      <trkpt lat="43.67116" lon="4.24253">
        <ele>15</ele>
        <time>2023-01-26T10:55:37+01:00</time>
      </trkpt>
      <trkpt lat="43.67117" lon="4.24284">
        <ele>13</ele>
        <time>2023-01-26T10:55:55+01:00</time>
      </trkpt>
      <trkpt lat="43.67115" lon="4.24315">
        <ele>17</ele>
        <time>2023-01-26T10:56:13+01:00</time>
      </trkpt>
      <trkpt lat="43.6711" lon="4.24347">
        <ele>16</ele>
        <time>2023-01-26T10:56:33+01:00</time>
      </trkpt>
      <trkpt lat="43.67099" lon="4.24375">
        <ele>13</ele>
        <time>2023-01-26T10:56:52+01:00</time>
      </trkpt>
      <trkpt lat="43.6708" lon="4.24393">
        <ele>12</ele>
        <time>2023-01-26T10:57:12+01:00</time>
      </trkpt>
      <trkpt lat="43.6706" lon="4.24408">
        <ele>10</ele>
        <time>2023-01-26T10:57:34+01:00</time>
      </trkpt>
      <trkpt lat="43.67039" lon="4.2442">
        <ele>7</ele>
        <time>2023-01-26T10:57:52+01:00</time>
      </trkpt>
      <trkpt lat="43.67017" lon="4.24426">
        <ele>7</ele>
        <time>2023-01-26T10:58:11+01:00</time>
      </trkpt>
      <trkpt lat="43.66994" lon="4.24431">
        <ele>9</ele>
        <time>2023-01-26T10:58:32+01:00</time>
      </trkpt>
      <trkpt lat="43.66987" lon="4.24461">
        <ele>13</ele>
        <time>2023-01-26T10:59:01+01:00</time>
      </trkpt>
      <trkpt lat="43.66992" lon="4.24523">
        <ele>12</ele>
        <time>2023-01-26T11:00:28+01:00</time>
      </trkpt>
      <trkpt lat="43.66998" lon="4.24554">
        <ele>9</ele>
        <time>2023-01-26T11:00:51+01:00</time>
      </trkpt>
      <trkpt lat="43.67004" lon="4.24584">
        <ele>6</ele>
        <time>2023-01-26T11:01:09+01:00</time>
      </trkpt>
      <trkpt lat="43.67011" lon="4.24615">
        <ele>6</ele>
        <time>2023-01-26T11:01:31+01:00</time>
      </trkpt>
      <trkpt lat="43.67014" lon="4.24646">
        <ele>5</ele>
        <time>2023-01-26T11:01:52+01:00</time>
      </trkpt>
      <trkpt lat="43.67017" lon="4.24678">
        <ele>10</ele>
        <time>2023-01-26T11:02:17+01:00</time>
      </trkpt>
      <trkpt lat="43.67022" lon="4.24708">
        <ele>12</ele>
        <time>2023-01-26T11:02:42+01:00</time>
      </trkpt>
      <trkpt lat="43.67024" lon="4.2474">
        <ele>11</ele>
        <time>2023-01-26T11:03:01+01:00</time>
      </trkpt>
      <trkpt lat="43.67029" lon="4.24771">
        <ele>9</ele>
        <time>2023-01-26T11:03:18+01:00</time>
      </trkpt>
      <trkpt lat="43.67037" lon="4.24801">
        <ele>8</ele>
        <time>2023-01-26T11:03:35+01:00</time>
      </trkpt>
      <trkpt lat="43.67042" lon="4.24831">
        <ele>8</ele>
        <time>2023-01-26T11:03:50+01:00</time>
      </trkpt>
      <trkpt lat="43.67048" lon="4.24864">
        <ele>7</ele>
        <time>2023-01-26T11:04:11+01:00</time>
      </trkpt>
      <trkpt lat="43.67052" lon="4.24894">
        <ele>10</ele>
        <time>2023-01-26T11:04:31+01:00</time>
      </trkpt>
      <trkpt lat="43.67058" lon="4.24926">
        <ele>11</ele>
        <time>2023-01-26T11:04:51+01:00</time>
      </trkpt>
      <trkpt lat="43.67063" lon="4.24957">
        <ele>10</ele>
        <time>2023-01-26T11:05:11+01:00</time>
      </trkpt>
      <trkpt lat="43.67069" lon="4.24989">
        <ele>11</ele>
        <time>2023-01-26T11:05:34+01:00</time>
      </trkpt>
      <trkpt lat="43.67069" lon="4.25021">
        <ele>13</ele>
        <time>2023-01-26T11:06:05+01:00</time>
      </trkpt>
      <trkpt lat="43.67047" lon="4.25031">
        <ele>16</ele>
        <time>2023-01-26T11:06:35+01:00</time>
      </trkpt>
      <trkpt lat="43.67025" lon="4.25034">
        <ele>12</ele>
        <time>2023-01-26T11:08:54+01:00</time>
      </trkpt>
      <trkpt lat="43.67002" lon="4.25036">
        <ele>8</ele>
        <time>2023-01-26T11:09:15+01:00</time>
      </trkpt>
      <trkpt lat="43.6698" lon="4.25036">
        <ele>10</ele>
        <time>2023-01-26T11:09:35+01:00</time>
      </trkpt>
      <trkpt lat="43.66957" lon="4.25037">
        <ele>9</ele>
        <time>2023-01-26T11:09:55+01:00</time>
      </trkpt>
      <trkpt lat="43.66934" lon="4.25039">
        <ele>12</ele>
        <time>2023-01-26T11:10:18+01:00</time>
      </trkpt>
      <trkpt lat="43.66912" lon="4.25044">
        <ele>10</ele>
        <time>2023-01-26T11:12:19+01:00</time>
      </trkpt>
      <trkpt lat="43.66889" lon="4.25038">
        <ele>6</ele>
        <time>2023-01-26T11:12:44+01:00</time>
      </trkpt>
      <trkpt lat="43.66865" lon="4.25033">
        <ele>7</ele>
        <time>2023-01-26T11:13:07+01:00</time>
      </trkpt>
      <trkpt lat="43.66843" lon="4.25029">
        <ele>9</ele>
        <time>2023-01-26T11:13:26+01:00</time>
      </trkpt>
      <trkpt lat="43.66819" lon="4.25035">
        <ele>8</ele>
        <time>2023-01-26T11:13:46+01:00</time>
      </trkpt>
      <trkpt lat="43.66797" lon="4.25038">
        <ele>8</ele>
        <time>2023-01-26T11:14:58+01:00</time>
      </trkpt>
      <trkpt lat="43.66774" lon="4.25041">
        <ele>10</ele>
        <time>2023-01-26T11:15:44+01:00</time>
      </trkpt>
      <trkpt lat="43.66751" lon="4.25041">
        <ele>9</ele>
        <time>2023-01-26T11:16:10+01:00</time>
      </trkpt>
      <trkpt lat="43.66728" lon="4.25043">
        <ele>8</ele>
        <time>2023-01-26T11:16:29+01:00</time>
      </trkpt>
      <trkpt lat="43.66705" lon="4.25045">
        <ele>6</ele>
        <time>2023-01-26T11:16:47+01:00</time>
      </trkpt>
      <trkpt lat="43.66682" lon="4.25048">
        <ele>6</ele>
        <time>2023-01-26T11:17:09+01:00</time>
      </trkpt>
      <trkpt lat="43.66659" lon="4.25052">
        <ele>7</ele>
        <time>2023-01-26T11:17:27+01:00</time>
      </trkpt>
      <trkpt lat="43.66637" lon="4.25055">
        <ele>8</ele>
        <time>2023-01-26T11:17:52+01:00</time>
      </trkpt>
      <trkpt lat="43.66614" lon="4.25055">
        <ele>12</ele>
        <time>2023-01-26T11:18:15+01:00</time>
      </trkpt>
      <trkpt lat="43.66591" lon="4.25064">
        <ele>12</ele>
        <time>2023-01-26T11:18:35+01:00</time>
      </trkpt>
      <trkpt lat="43.66569" lon="4.25066">
        <ele>8</ele>
        <time>2023-01-26T11:18:56+01:00</time>
      </trkpt>
      <trkpt lat="43.66546" lon="4.25067">
        <ele>4</ele>
        <time>2023-01-26T11:19:18+01:00</time>
      </trkpt>
      <trkpt lat="43.66523" lon="4.25067">
        <ele>5</ele>
        <time>2023-01-26T11:19:41+01:00</time>
      </trkpt>
      <trkpt lat="43.66501" lon="4.25069">
        <ele>6</ele>
        <time>2023-01-26T11:20:04+01:00</time>
      </trkpt>
      <trkpt lat="43.66479" lon="4.25074">
        <ele>12</ele>
        <time>2023-01-26T11:20:27+01:00</time>
      </trkpt>
      <trkpt lat="43.66456" lon="4.25078">
        <ele>15</ele>
        <time>2023-01-26T11:20:51+01:00</time>
      </trkpt>
      <trkpt lat="43.66433" lon="4.25081">
        <ele>14</ele>
        <time>2023-01-26T11:21:12+01:00</time>
      </trkpt>
      <trkpt lat="43.6641" lon="4.25084">
        <ele>12</ele>
        <time>2023-01-26T11:21:34+01:00</time>
      </trkpt>
      <trkpt lat="43.66388" lon="4.25086">
        <ele>8</ele>
        <time>2023-01-26T11:21:52+01:00</time>
      </trkpt>
      <trkpt lat="43.66365" lon="4.25088">
        <ele>7</ele>
        <time>2023-01-26T11:22:12+01:00</time>
      </trkpt>
      <trkpt lat="43.66342" lon="4.25088">
        <ele>4</ele>
        <time>2023-01-26T11:22:33+01:00</time>
      </trkpt>
      <trkpt lat="43.66319" lon="4.25092">
        <ele>2</ele>
        <time>2023-01-26T11:22:56+01:00</time>
      </trkpt>
      <trkpt lat="43.66297" lon="4.25092">
        <ele>2</ele>
        <time>2023-01-26T11:23:16+01:00</time>
      </trkpt>
      <trkpt lat="43.66274" lon="4.25094">
        <ele>5</ele>
        <time>2023-01-26T11:26:00+01:00</time>
      </trkpt>
      <trkpt lat="43.66251" lon="4.25096">
        <ele>11</ele>
        <time>2023-01-26T11:26:31+01:00</time>
      </trkpt>
      <trkpt lat="43.66229" lon="4.25098">
        <ele>13</ele>
        <time>2023-01-26T11:26:55+01:00</time>
      </trkpt>
      <trkpt lat="43.66206" lon="4.25101">
        <ele>13</ele>
        <time>2023-01-26T11:27:15+01:00</time>
      </trkpt>
      <trkpt lat="43.66182" lon="4.25103">
        <ele>14</ele>
        <time>2023-01-26T11:27:38+01:00</time>
      </trkpt>
      <trkpt lat="43.6616" lon="4.25108">
        <ele>15</ele>
        <time>2023-01-26T11:27:58+01:00</time>
      </trkpt>
      <trkpt lat="43.66137" lon="4.25109">
        <ele>11</ele>
        <time>2023-01-26T11:28:18+01:00</time>
      </trkpt>
      <trkpt lat="43.66114" lon="4.25112">
        <ele>5</ele>
        <time>2023-01-26T11:28:41+01:00</time>
      </trkpt>
      <trkpt lat="43.66091" lon="4.25111">
        <ele>3</ele>
        <time>2023-01-26T11:29:10+01:00</time>
      </trkpt>
      <trkpt lat="43.66069" lon="4.25115">
        <ele>5</ele>
        <time>2023-01-26T11:29:37+01:00</time>
      </trkpt>
      <trkpt lat="43.66046" lon="4.25119">
        <ele>7</ele>
        <time>2023-01-26T11:30:03+01:00</time>
      </trkpt>
      <trkpt lat="43.66028" lon="4.25137">
        <ele>15</ele>
        <time>2023-01-26T11:32:51+01:00</time>
      </trkpt>
      <trkpt lat="43.66024" lon="4.25169">
        <ele>16</ele>
        <time>2023-01-26T11:33:17+01:00</time>
      </trkpt>
      <trkpt lat="43.66023" lon="4.25201">
        <ele>19</ele>
        <time>2023-01-26T11:33:41+01:00</time>
      </trkpt>
      <trkpt lat="43.66027" lon="4.25232">
        <ele>23</ele>
        <time>2023-01-26T11:34:01+01:00</time>
      </trkpt>
      <trkpt lat="43.66024" lon="4.25265">
        <ele>25</ele>
        <time>2023-01-26T11:34:22+01:00</time>
      </trkpt>
      <trkpt lat="43.66023" lon="4.25297">
        <ele>25</ele>
        <time>2023-01-26T11:34:43+01:00</time>
      </trkpt>
      <trkpt lat="43.66025" lon="4.25328">
        <ele>28</ele>
        <time>2023-01-26T11:35:05+01:00</time>
      </trkpt>
      <trkpt lat="43.66027" lon="4.2536">
        <ele>31</ele>
        <time>2023-01-26T11:35:23+01:00</time>
      </trkpt>
      <trkpt lat="43.66028" lon="4.25392">
        <ele>34</ele>
        <time>2023-01-26T11:35:41+01:00</time>
      </trkpt>
      <trkpt lat="43.66016" lon="4.2542">
        <ele>27</ele>
        <time>2023-01-26T11:35:59+01:00</time>
      </trkpt>
      <trkpt lat="43.66003" lon="4.25446">
        <ele>18</ele>
        <time>2023-01-26T11:36:17+01:00</time>
      </trkpt>
      <trkpt lat="43.65989" lon="4.25472">
        <ele>13</ele>
        <time>2023-01-26T11:36:36+01:00</time>
      </trkpt>
      <trkpt lat="43.65961" lon="4.25522">
        <ele>10</ele>
        <time>2023-01-26T11:37:17+01:00</time>
      </trkpt>
      <trkpt lat="43.65947" lon="4.25546">
        <ele>7</ele>
        <time>2023-01-26T11:37:37+01:00</time>
      </trkpt>
      <trkpt lat="43.65931" lon="4.25569">
        <ele>5</ele>
        <time>2023-01-26T11:37:57+01:00</time>
      </trkpt>
      <trkpt lat="43.65914" lon="4.25592">
        <ele>7</ele>
        <time>2023-01-26T11:38:18+01:00</time>
      </trkpt>
      <trkpt lat="43.65896" lon="4.25611">
        <ele>5</ele>
        <time>2023-01-26T11:38:38+01:00</time>
      </trkpt>
      <trkpt lat="43.65876" lon="4.25627">
        <ele>6</ele>
        <time>2023-01-26T11:39:01+01:00</time>
      </trkpt>
      <trkpt lat="43.65854" lon="4.25639">
        <ele>10</ele>
        <time>2023-01-26T11:39:32+01:00</time>
      </trkpt>
      <trkpt lat="43.65833" lon="4.25652">
        <ele>8</ele>
        <time>2023-01-26T11:39:56+01:00</time>
      </trkpt>
      <trkpt lat="43.65813" lon="4.25669">
        <ele>8</ele>
        <time>2023-01-26T11:40:18+01:00</time>
      </trkpt>
      <trkpt lat="43.65791" lon="4.25675">
        <ele>7</ele>
        <time>2023-01-26T11:40:55+01:00</time>
      </trkpt>
      <trkpt lat="43.65768" lon="4.25681">
        <ele>9</ele>
        <time>2023-01-26T11:41:16+01:00</time>
      </trkpt>
      <trkpt lat="43.65746" lon="4.25687">
        <ele>9</ele>
        <time>2023-01-26T11:41:39+01:00</time>
      </trkpt>
      <trkpt lat="43.65724" lon="4.25693">
        <ele>10</ele>
        <time>2023-01-26T11:42:06+01:00</time>
      </trkpt>
      <trkpt lat="43.65701" lon="4.25696">
        <ele>11</ele>
        <time>2023-01-26T11:42:27+01:00</time>
      </trkpt>
      <trkpt lat="43.65678" lon="4.257">
        <ele>11</ele>
        <time>2023-01-26T11:42:46+01:00</time>
      </trkpt>
      <trkpt lat="43.65655" lon="4.25701">
        <ele>11</ele>
        <time>2023-01-26T11:43:05+01:00</time>
      </trkpt>
      <trkpt lat="43.65632" lon="4.25701">
        <ele>11</ele>
        <time>2023-01-26T11:43:26+01:00</time>
      </trkpt>
      <trkpt lat="43.65609" lon="4.25702">
        <ele>12</ele>
        <time>2023-01-26T11:43:45+01:00</time>
      </trkpt>
      <trkpt lat="43.65586" lon="4.25702">
        <ele>14</ele>
        <time>2023-01-26T11:44:05+01:00</time>
      </trkpt>
      <trkpt lat="43.65563" lon="4.25702">
        <ele>14</ele>
        <time>2023-01-26T11:44:25+01:00</time>
      </trkpt>
      <trkpt lat="43.6554" lon="4.25702">
        <ele>13</ele>
        <time>2023-01-26T11:44:44+01:00</time>
      </trkpt>
      <trkpt lat="43.65517" lon="4.25708">
        <ele>15</ele>
        <time>2023-01-26T11:45:05+01:00</time>
      </trkpt>
      <trkpt lat="43.65495" lon="4.25716">
        <ele>17</ele>
        <time>2023-01-26T11:45:27+01:00</time>
      </trkpt>
      <trkpt lat="43.65472" lon="4.25723">
        <ele>19</ele>
        <time>2023-01-26T11:45:50+01:00</time>
      </trkpt>
      <trkpt lat="43.65448" lon="4.25728">
        <ele>17</ele>
        <time>2023-01-26T11:46:13+01:00</time>
      </trkpt>
      <trkpt lat="43.65426" lon="4.25733">
        <ele>20</ele>
        <time>2023-01-26T11:46:59+01:00</time>
      </trkpt>
      <trkpt lat="43.65405" lon="4.25744">
        <ele>19</ele>
        <time>2023-01-26T11:47:22+01:00</time>
      </trkpt>
      <trkpt lat="43.65383" lon="4.25754">
        <ele>20</ele>
        <time>2023-01-26T11:47:44+01:00</time>
      </trkpt>
      <trkpt lat="43.65361" lon="4.25762">
        <ele>21</ele>
        <time>2023-01-26T11:48:31+01:00</time>
      </trkpt>
      <trkpt lat="43.65339" lon="4.25772">
        <ele>23</ele>
        <time>2023-01-26T11:48:54+01:00</time>
      </trkpt>
      <trkpt lat="43.65317" lon="4.25779">
        <ele>24</ele>
        <time>2023-01-26T11:49:39+01:00</time>
      </trkpt>
      <trkpt lat="43.65295" lon="4.25789">
        <ele>29</ele>
        <time>2023-01-26T11:50:04+01:00</time>
      </trkpt>
      <trkpt lat="43.65273" lon="4.25799">
        <ele>31</ele>
        <time>2023-01-26T11:50:26+01:00</time>
      </trkpt>
      <trkpt lat="43.65251" lon="4.25809">
        <ele>32</ele>
        <time>2023-01-26T11:50:48+01:00</time>
      </trkpt>
      <trkpt lat="43.65229" lon="4.25818">
        <ele>32</ele>
        <time>2023-01-26T11:51:11+01:00</time>
      </trkpt>
      <trkpt lat="43.65207" lon="4.25824">
        <ele>37</ele>
        <time>2023-01-26T11:51:36+01:00</time>
      </trkpt>
      <trkpt lat="43.65184" lon="4.25831">
        <ele>40</ele>
        <time>2023-01-26T11:52:03+01:00</time>
      </trkpt>
      <trkpt lat="43.65161" lon="4.25835">
        <ele>42</ele>
        <time>2023-01-26T11:52:25+01:00</time>
      </trkpt>
      <trkpt lat="43.65138" lon="4.25836">
        <ele>44</ele>
        <time>2023-01-26T11:52:51+01:00</time>
      </trkpt>
      <trkpt lat="43.65115" lon="4.25834">
        <ele>43</ele>
        <time>2023-01-26T11:53:13+01:00</time>
      </trkpt>
      <trkpt lat="43.65092" lon="4.25834">
        <ele>39</ele>
        <time>2023-01-26T11:53:34+01:00</time>
      </trkpt>
      <trkpt lat="43.6507" lon="4.25835">
        <ele>37</ele>
        <time>2023-01-26T11:53:57+01:00</time>
      </trkpt>
      <trkpt lat="43.65047" lon="4.25837">
        <ele>38</ele>
        <time>2023-01-26T11:54:19+01:00</time>
      </trkpt>
      <trkpt lat="43.65024" lon="4.25845">
        <ele>39</ele>
        <time>2023-01-26T11:54:41+01:00</time>
      </trkpt>
      <trkpt lat="43.65002" lon="4.2585">
        <ele>37</ele>
        <time>2023-01-26T11:55:00+01:00</time>
      </trkpt>
      <trkpt lat="43.64979" lon="4.25851">
        <ele>36</ele>
        <time>2023-01-26T11:55:22+01:00</time>
      </trkpt>
      <trkpt lat="43.65003" lon="4.2585">
        <ele>31</ele>
        <time>2023-01-26T11:58:50+01:00</time>
      </trkpt>
      <trkpt lat="43.65026" lon="4.25844">
        <ele>31</ele>
        <time>2023-01-26T11:59:10+01:00</time>
      </trkpt>
      <trkpt lat="43.65048" lon="4.25838">
        <ele>32</ele>
        <time>2023-01-26T11:59:33+01:00</time>
      </trkpt>
      <trkpt lat="43.6506" lon="4.25864">
        <ele>35</ele>
        <time>2023-01-26T12:01:08+01:00</time>
      </trkpt>
      <trkpt lat="43.65065" lon="4.25895">
        <ele>37</ele>
        <time>2023-01-26T12:01:33+01:00</time>
      </trkpt>
      <trkpt lat="43.65069" lon="4.25926">
        <ele>40</ele>
        <time>2023-01-26T12:01:54+01:00</time>
      </trkpt>
      <trkpt lat="43.6507" lon="4.25958">
        <ele>39</ele>
        <time>2023-01-26T12:02:16+01:00</time>
      </trkpt>
      <trkpt lat="43.65075" lon="4.25988">
        <ele>36</ele>
        <time>2023-01-26T12:02:35+01:00</time>
      </trkpt>
      <trkpt lat="43.65077" lon="4.2602">
        <ele>39</ele>
        <time>2023-01-26T12:02:56+01:00</time>
      </trkpt>
      <trkpt lat="43.6508" lon="4.26052">
        <ele>43</ele>
        <time>2023-01-26T12:03:18+01:00</time>
      </trkpt>
      <trkpt lat="43.6508" lon="4.26084">
        <ele>42</ele>
        <time>2023-01-26T12:03:37+01:00</time>
      </trkpt>
      <trkpt lat="43.65081" lon="4.26116">
        <ele>41</ele>
        <time>2023-01-26T12:03:58+01:00</time>
      </trkpt>
      <trkpt lat="43.65086" lon="4.26147">
        <ele>42</ele>
        <time>2023-01-26T12:04:21+01:00</time>
      </trkpt>
      <trkpt lat="43.6511" lon="4.26183">
        <ele>36</ele>
        <time>2023-01-26T12:05:22+01:00</time>
      </trkpt>
      <trkpt lat="43.65133" lon="4.2618">
        <ele>35</ele>
        <time>2023-01-26T12:05:41+01:00</time>
      </trkpt>
      <trkpt lat="43.65155" lon="4.26175">
        <ele>35</ele>
        <time>2023-01-26T12:06:04+01:00</time>
      </trkpt>
      <trkpt lat="43.65178" lon="4.26174">
        <ele>31</ele>
        <time>2023-01-26T12:06:31+01:00</time>
      </trkpt>
      <trkpt lat="43.65201" lon="4.26175">
        <ele>33</ele>
        <time>2023-01-26T12:07:02+01:00</time>
      </trkpt>
      <trkpt lat="43.65224" lon="4.26172">
        <ele>29</ele>
        <time>2023-01-26T12:07:24+01:00</time>
      </trkpt>
      <trkpt lat="43.65247" lon="4.26167">
        <ele>31</ele>
        <time>2023-01-26T12:07:47+01:00</time>
      </trkpt>
      <trkpt lat="43.65265" lon="4.26186">
        <ele>36</ele>
        <time>2023-01-26T12:08:22+01:00</time>
      </trkpt>
      <trkpt lat="43.6527" lon="4.26217">
        <ele>39</ele>
        <time>2023-01-26T12:08:45+01:00</time>
      </trkpt>
      <trkpt lat="43.65276" lon="4.26248">
        <ele>41</ele>
        <time>2023-01-26T12:09:07+01:00</time>
      </trkpt>
      <trkpt lat="43.65293" lon="4.2627">
        <ele>38</ele>
        <time>2023-01-26T12:09:26+01:00</time>
      </trkpt>
      <trkpt lat="43.65316" lon="4.26274">
        <ele>32</ele>
        <time>2023-01-26T12:09:46+01:00</time>
      </trkpt>
      <trkpt lat="43.65339" lon="4.26278">
        <ele>30</ele>
        <time>2023-01-26T12:10:06+01:00</time>
      </trkpt>
      <trkpt lat="43.65361" lon="4.26285">
        <ele>31</ele>
        <time>2023-01-26T12:10:42+01:00</time>
      </trkpt>
      <trkpt lat="43.65384" lon="4.2629">
        <ele>29</ele>
        <time>2023-01-26T12:11:04+01:00</time>
      </trkpt>
      <trkpt lat="43.65406" lon="4.26296">
        <ele>29</ele>
        <time>2023-01-26T12:11:39+01:00</time>
      </trkpt>
      <trkpt lat="43.6541" lon="4.26327">
        <ele>34</ele>
        <time>2023-01-26T12:12:01+01:00</time>
      </trkpt>
      <trkpt lat="43.65414" lon="4.26359">
        <ele>35</ele>
        <time>2023-01-26T12:12:25+01:00</time>
      </trkpt>
      <trkpt lat="43.6542" lon="4.2639">
        <ele>36</ele>
        <time>2023-01-26T12:12:46+01:00</time>
      </trkpt>
      <trkpt lat="43.65428" lon="4.2642">
        <ele>37</ele>
        <time>2023-01-26T12:13:07+01:00</time>
      </trkpt>
      <trkpt lat="43.6545" lon="4.2643">
        <ele>35</ele>
        <time>2023-01-26T12:13:25+01:00</time>
      </trkpt>
      <trkpt lat="43.65473" lon="4.26438">
        <ele>33</ele>
        <time>2023-01-26T12:13:45+01:00</time>
      </trkpt>
      <trkpt lat="43.65495" lon="4.26446">
        <ele>35</ele>
        <time>2023-01-26T12:14:03+01:00</time>
      </trkpt>
      <trkpt lat="43.65518" lon="4.26453">
        <ele>38</ele>
        <time>2023-01-26T12:14:24+01:00</time>
      </trkpt>
      <trkpt lat="43.6554" lon="4.2646">
        <ele>41</ele>
        <time>2023-01-26T12:14:45+01:00</time>
      </trkpt>
      <trkpt lat="43.65563" lon="4.26468">
        <ele>43</ele>
        <time>2023-01-26T12:15:06+01:00</time>
      </trkpt>
      <trkpt lat="43.65586" lon="4.26472">
        <ele>44</ele>
        <time>2023-01-26T12:15:28+01:00</time>
      </trkpt>
      <trkpt lat="43.65594" lon="4.26442">
        <ele>45</ele>
        <time>2023-01-26T12:15:52+01:00</time>
      </trkpt>
      <trkpt lat="43.656" lon="4.26412">
        <ele>43</ele>
        <time>2023-01-26T12:16:12+01:00</time>
      </trkpt>
      <trkpt lat="43.65623" lon="4.26409">
        <ele>42</ele>
        <time>2023-01-26T12:16:35+01:00</time>
      </trkpt>
      <trkpt lat="43.65645" lon="4.26409">
        <ele>40</ele>
        <time>2023-01-26T12:16:59+01:00</time>
      </trkpt>
      <trkpt lat="43.65668" lon="4.26408">
        <ele>34</ele>
        <time>2023-01-26T12:17:25+01:00</time>
      </trkpt>
      <trkpt lat="43.65691" lon="4.26417">
        <ele>29</ele>
        <time>2023-01-26T12:17:53+01:00</time>
      </trkpt>
      <trkpt lat="43.65713" lon="4.26429">
        <ele>27</ele>
        <time>2023-01-26T12:18:17+01:00</time>
      </trkpt>
      <trkpt lat="43.65735" lon="4.26438">
        <ele>27</ele>
        <time>2023-01-26T12:18:37+01:00</time>
      </trkpt>
      <trkpt lat="43.65754" lon="4.26456">
        <ele>28</ele>
        <time>2023-01-26T12:18:57+01:00</time>
      </trkpt>
      <trkpt lat="43.65772" lon="4.26474">
        <ele>27</ele>
        <time>2023-01-26T12:19:23+01:00</time>
      </trkpt>
      <trkpt lat="43.65791" lon="4.26491">
        <ele>27</ele>
        <time>2023-01-26T12:19:47+01:00</time>
      </trkpt>
      <trkpt lat="43.65795" lon="4.26526">
        <ele>31</ele>
        <time>2023-01-26T12:21:39+01:00</time>
      </trkpt>
      <trkpt lat="43.65782" lon="4.26553">
        <ele>34</ele>
        <time>2023-01-26T12:24:40+01:00</time>
      </trkpt>
      <trkpt lat="43.65769" lon="4.26579">
        <ele>37</ele>
        <time>2023-01-26T12:25:09+01:00</time>
      </trkpt>
      <trkpt lat="43.65781" lon="4.26552">
        <ele>43</ele>
        <time>2023-01-26T13:13:40+01:00</time>
      </trkpt>
      <trkpt lat="43.65795" lon="4.26526">
        <ele>41</ele>
        <time>2023-01-26T13:14:02+01:00</time>
      </trkpt>
      <trkpt lat="43.65801" lon="4.26496">
        <ele>35</ele>
        <time>2023-01-26T13:14:28+01:00</time>
      </trkpt>
      <trkpt lat="43.65782" lon="4.26478">
        <ele>28</ele>
        <time>2023-01-26T13:14:51+01:00</time>
      </trkpt>
      <trkpt lat="43.65762" lon="4.26494">
        <ele>31</ele>
        <time>2023-01-26T13:15:16+01:00</time>
      </trkpt>
      <trkpt lat="43.6575" lon="4.26521">
        <ele>28</ele>
        <time>2023-01-26T13:15:34+01:00</time>
      </trkpt>
      <trkpt lat="43.65736" lon="4.26547">
        <ele>30</ele>
        <time>2023-01-26T13:15:54+01:00</time>
      </trkpt>
      <trkpt lat="43.65723" lon="4.26575">
        <ele>31</ele>
        <time>2023-01-26T13:16:14+01:00</time>
      </trkpt>
      <trkpt lat="43.65711" lon="4.26602">
        <ele>32</ele>
        <time>2023-01-26T13:16:33+01:00</time>
      </trkpt>
      <trkpt lat="43.65697" lon="4.26627">
        <ele>26</ele>
        <time>2023-01-26T13:16:51+01:00</time>
      </trkpt>
      <trkpt lat="43.65686" lon="4.26656">
        <ele>30</ele>
        <time>2023-01-26T13:17:12+01:00</time>
      </trkpt>
      <trkpt lat="43.65672" lon="4.26682">
        <ele>30</ele>
        <time>2023-01-26T13:17:31+01:00</time>
      </trkpt>
      <trkpt lat="43.65658" lon="4.26709">
        <ele>30</ele>
        <time>2023-01-26T13:17:50+01:00</time>
      </trkpt>
      <trkpt lat="43.65647" lon="4.26736">
        <ele>30</ele>
        <time>2023-01-26T13:18:12+01:00</time>
      </trkpt>
      <trkpt lat="43.65633" lon="4.26762">
        <ele>28</ele>
        <time>2023-01-26T13:18:33+01:00</time>
      </trkpt>
      <trkpt lat="43.65621" lon="4.26789">
        <ele>30</ele>
        <time>2023-01-26T13:18:54+01:00</time>
      </trkpt>
      <trkpt lat="43.65608" lon="4.26815">
        <ele>29</ele>
        <time>2023-01-26T13:19:15+01:00</time>
      </trkpt>
      <trkpt lat="43.65596" lon="4.26841">
        <ele>29</ele>
        <time>2023-01-26T13:19:36+01:00</time>
      </trkpt>
      <trkpt lat="43.65584" lon="4.2687">
        <ele>29</ele>
        <time>2023-01-26T13:19:57+01:00</time>
      </trkpt>
      <trkpt lat="43.65572" lon="4.26896">
        <ele>27</ele>
        <time>2023-01-26T13:20:17+01:00</time>
      </trkpt>
      <trkpt lat="43.6556" lon="4.26924">
        <ele>26</ele>
        <time>2023-01-26T13:20:37+01:00</time>
      </trkpt>
      <trkpt lat="43.65549" lon="4.26951">
        <ele>27</ele>
        <time>2023-01-26T13:20:57+01:00</time>
      </trkpt>
      <trkpt lat="43.65539" lon="4.26979">
        <ele>29</ele>
        <time>2023-01-26T13:21:27+01:00</time>
      </trkpt>
      <trkpt lat="43.65524" lon="4.27002">
        <ele>29</ele>
        <time>2023-01-26T13:21:50+01:00</time>
      </trkpt>
      <trkpt lat="43.6551" lon="4.27028">
        <ele>27</ele>
        <time>2023-01-26T13:22:12+01:00</time>
      </trkpt>
      <trkpt lat="43.65496" lon="4.27055">
        <ele>27</ele>
        <time>2023-01-26T13:22:36+01:00</time>
      </trkpt>
      <trkpt lat="43.65508" lon="4.27026">
        <ele>26</ele>
        <time>2023-01-26T13:23:42+01:00</time>
      </trkpt>
      <trkpt lat="43.65521" lon="4.27001">
        <ele>25</ele>
        <time>2023-01-26T13:24:01+01:00</time>
      </trkpt>
      <trkpt lat="43.65544" lon="4.26947">
        <ele>30</ele>
        <time>2023-01-26T13:24:53+01:00</time>
      </trkpt>
      <trkpt lat="43.65553" lon="4.26918">
        <ele>36</ele>
        <time>2023-01-26T13:25:37+01:00</time>
      </trkpt>
      <trkpt lat="43.65555" lon="4.26883">
        <ele>34</ele>
        <time>2023-01-26T13:27:02+01:00</time>
      </trkpt>
      <trkpt lat="43.65541" lon="4.26908">
        <ele>27</ele>
        <time>2023-01-26T13:28:22+01:00</time>
      </trkpt>
      <trkpt lat="43.65523" lon="4.26928">
        <ele>27</ele>
        <time>2023-01-26T13:28:46+01:00</time>
      </trkpt>
      <trkpt lat="43.65501" lon="4.26932">
        <ele>26</ele>
        <time>2023-01-26T13:29:06+01:00</time>
      </trkpt>
      <trkpt lat="43.65478" lon="4.26935">
        <ele>28</ele>
        <time>2023-01-26T13:29:27+01:00</time>
      </trkpt>
      <trkpt lat="43.65456" lon="4.26947">
        <ele>28</ele>
        <time>2023-01-26T13:29:48+01:00</time>
      </trkpt>
      <trkpt lat="43.65435" lon="4.26961">
        <ele>28</ele>
        <time>2023-01-26T13:30:08+01:00</time>
      </trkpt>
      <trkpt lat="43.65415" lon="4.26975">
        <ele>27</ele>
        <time>2023-01-26T13:30:29+01:00</time>
      </trkpt>
      <trkpt lat="43.65394" lon="4.2699">
        <ele>27</ele>
        <time>2023-01-26T13:30:49+01:00</time>
      </trkpt>
      <trkpt lat="43.65373" lon="4.27003">
        <ele>26</ele>
        <time>2023-01-26T13:31:09+01:00</time>
      </trkpt>
      <trkpt lat="43.65353" lon="4.27015">
        <ele>27</ele>
        <time>2023-01-26T13:31:28+01:00</time>
      </trkpt>
      <trkpt lat="43.6533" lon="4.27026">
        <ele>26</ele>
        <time>2023-01-26T13:31:48+01:00</time>
      </trkpt>
      <trkpt lat="43.65309" lon="4.27036">
        <ele>27</ele>
        <time>2023-01-26T13:32:09+01:00</time>
      </trkpt>
      <trkpt lat="43.65286" lon="4.27041">
        <ele>27</ele>
        <time>2023-01-26T13:32:30+01:00</time>
      </trkpt>
      <trkpt lat="43.65263" lon="4.27045">
        <ele>26</ele>
        <time>2023-01-26T13:32:51+01:00</time>
      </trkpt>
      <trkpt lat="43.6524" lon="4.27045">
        <ele>28</ele>
        <time>2023-01-26T13:33:12+01:00</time>
      </trkpt>
      <trkpt lat="43.65217" lon="4.27047">
        <ele>28</ele>
        <time>2023-01-26T13:33:33+01:00</time>
      </trkpt>
      <trkpt lat="43.65194" lon="4.2705">
        <ele>27</ele>
        <time>2023-01-26T13:33:58+01:00</time>
      </trkpt>
      <trkpt lat="43.65171" lon="4.27055">
        <ele>29</ele>
        <time>2023-01-26T13:34:18+01:00</time>
      </trkpt>
      <trkpt lat="43.65148" lon="4.27058">
        <ele>30</ele>
        <time>2023-01-26T13:34:36+01:00</time>
      </trkpt>
      <trkpt lat="43.65126" lon="4.27061">
        <ele>30</ele>
        <time>2023-01-26T13:34:58+01:00</time>
      </trkpt>
      <trkpt lat="43.65103" lon="4.27062">
        <ele>29</ele>
        <time>2023-01-26T13:35:17+01:00</time>
      </trkpt>
      <trkpt lat="43.6508" lon="4.27064">
        <ele>29</ele>
        <time>2023-01-26T13:35:38+01:00</time>
      </trkpt>
      <trkpt lat="43.65057" lon="4.27066">
        <ele>29</ele>
        <time>2023-01-26T13:35:58+01:00</time>
      </trkpt>
      <trkpt lat="43.65033" lon="4.27069">
        <ele>30</ele>
        <time>2023-01-26T13:36:19+01:00</time>
      </trkpt>
      <trkpt lat="43.6501" lon="4.27073">
        <ele>29</ele>
        <time>2023-01-26T13:36:38+01:00</time>
      </trkpt>
      <trkpt lat="43.64987" lon="4.27075">
        <ele>30</ele>
        <time>2023-01-26T13:37:11+01:00</time>
      </trkpt>
      <trkpt lat="43.64965" lon="4.2708">
        <ele>28</ele>
        <time>2023-01-26T13:37:36+01:00</time>
      </trkpt>
      <trkpt lat="43.64941" lon="4.27083">
        <ele>29</ele>
        <time>2023-01-26T13:37:56+01:00</time>
      </trkpt>
      <trkpt lat="43.64918" lon="4.27085">
        <ele>29</ele>
        <time>2023-01-26T13:38:16+01:00</time>
      </trkpt>
      <trkpt lat="43.64895" lon="4.27087">
        <ele>28</ele>
        <time>2023-01-26T13:38:35+01:00</time>
      </trkpt>
      <trkpt lat="43.64872" lon="4.2709">
        <ele>28</ele>
        <time>2023-01-26T13:38:56+01:00</time>
      </trkpt>
      <trkpt lat="43.64849" lon="4.27094">
        <ele>27</ele>
        <time>2023-01-26T13:39:16+01:00</time>
      </trkpt>
      <trkpt lat="43.64826" lon="4.27097">
        <ele>28</ele>
        <time>2023-01-26T13:39:40+01:00</time>
      </trkpt>
      <trkpt lat="43.64803" lon="4.27096">
        <ele>28</ele>
        <time>2023-01-26T13:40:01+01:00</time>
      </trkpt>
      <trkpt lat="43.64779" lon="4.27097">
        <ele>27</ele>
        <time>2023-01-26T13:40:23+01:00</time>
      </trkpt>
      <trkpt lat="43.64757" lon="4.271">
        <ele>25</ele>
        <time>2023-01-26T13:40:48+01:00</time>
      </trkpt>
      <trkpt lat="43.64733" lon="4.27102">
        <ele>27</ele>
        <time>2023-01-26T13:41:11+01:00</time>
      </trkpt>
      <trkpt lat="43.64711" lon="4.27104">
        <ele>25</ele>
        <time>2023-01-26T13:42:02+01:00</time>
      </trkpt>
      <trkpt lat="43.64688" lon="4.27105">
        <ele>25</ele>
        <time>2023-01-26T13:42:27+01:00</time>
      </trkpt>
      <trkpt lat="43.64665" lon="4.27103">
        <ele>25</ele>
        <time>2023-01-26T13:42:47+01:00</time>
      </trkpt>
      <trkpt lat="43.64643" lon="4.27096">
        <ele>25</ele>
        <time>2023-01-26T13:43:08+01:00</time>
      </trkpt>
      <trkpt lat="43.64623" lon="4.27083">
        <ele>26</ele>
        <time>2023-01-26T13:43:29+01:00</time>
      </trkpt>
      <trkpt lat="43.64604" lon="4.27063">
        <ele>28</ele>
        <time>2023-01-26T13:43:48+01:00</time>
      </trkpt>
      <trkpt lat="43.64586" lon="4.27044">
        <ele>26</ele>
        <time>2023-01-26T13:44:08+01:00</time>
      </trkpt>
      <trkpt lat="43.64566" lon="4.27027">
        <ele>26</ele>
        <time>2023-01-26T13:44:50+01:00</time>
      </trkpt>
      <trkpt lat="43.64546" lon="4.27013">
        <ele>26</ele>
        <time>2023-01-26T13:45:13+01:00</time>
      </trkpt>
      <trkpt lat="43.64524" lon="4.27003">
        <ele>24</ele>
        <time>2023-01-26T13:45:34+01:00</time>
      </trkpt>
      <trkpt lat="43.64501" lon="4.26997">
        <ele>26</ele>
        <time>2023-01-26T13:45:55+01:00</time>
      </trkpt>
      <trkpt lat="43.64478" lon="4.26997">
        <ele>25</ele>
        <time>2023-01-26T13:46:15+01:00</time>
      </trkpt>
      <trkpt lat="43.64455" lon="4.26999">
        <ele>24</ele>
        <time>2023-01-26T13:46:35+01:00</time>
      </trkpt>
      <trkpt lat="43.64433" lon="4.27007">
        <ele>23</ele>
        <time>2023-01-26T13:46:58+01:00</time>
      </trkpt>
      <trkpt lat="43.64411" lon="4.27019">
        <ele>22</ele>
        <time>2023-01-26T13:47:19+01:00</time>
      </trkpt>
      <trkpt lat="43.6439" lon="4.27032">
        <ele>21</ele>
        <time>2023-01-26T13:47:40+01:00</time>
      </trkpt>
      <trkpt lat="43.6437" lon="4.27046">
        <ele>20</ele>
        <time>2023-01-26T13:48:02+01:00</time>
      </trkpt>
      <trkpt lat="43.6435" lon="4.27062">
        <ele>19</ele>
        <time>2023-01-26T13:48:24+01:00</time>
      </trkpt>
      <trkpt lat="43.6433" lon="4.27077">
        <ele>21</ele>
        <time>2023-01-26T13:48:46+01:00</time>
      </trkpt>
      <trkpt lat="43.6431" lon="4.27092">
        <ele>24</ele>
        <time>2023-01-26T13:49:08+01:00</time>
      </trkpt>
      <trkpt lat="43.64289" lon="4.27105">
        <ele>29</ele>
        <time>2023-01-26T13:49:31+01:00</time>
      </trkpt>
      <trkpt lat="43.64267" lon="4.27117">
        <ele>29</ele>
        <time>2023-01-26T13:49:51+01:00</time>
      </trkpt>
      <trkpt lat="43.64245" lon="4.27125">
        <ele>31</ele>
        <time>2023-01-26T13:50:14+01:00</time>
      </trkpt>
      <trkpt lat="43.64222" lon="4.27128">
        <ele>29</ele>
        <time>2023-01-26T13:50:34+01:00</time>
      </trkpt>
      <trkpt lat="43.64199" lon="4.27129">
        <ele>29</ele>
        <time>2023-01-26T13:53:04+01:00</time>
      </trkpt>
      <trkpt lat="43.64176" lon="4.27128">
        <ele>30</ele>
        <time>2023-01-26T13:53:27+01:00</time>
      </trkpt>
      <trkpt lat="43.64154" lon="4.27121">
        <ele>29</ele>
        <time>2023-01-26T13:53:50+01:00</time>
      </trkpt>
      <trkpt lat="43.64131" lon="4.27116">
        <ele>30</ele>
        <time>2023-01-26T13:54:16+01:00</time>
      </trkpt>
      <trkpt lat="43.64124" lon="4.27086">
        <ele>24</ele>
        <time>2023-01-26T13:55:49+01:00</time>
      </trkpt>
      <trkpt lat="43.64122" lon="4.27054">
        <ele>23</ele>
        <time>2023-01-26T13:56:16+01:00</time>
      </trkpt>
      <trkpt lat="43.64121" lon="4.27023">
        <ele>28</ele>
        <time>2023-01-26T13:56:42+01:00</time>
      </trkpt>
      <trkpt lat="43.64124" lon="4.26991">
        <ele>31</ele>
        <time>2023-01-26T13:57:06+01:00</time>
      </trkpt>
      <trkpt lat="43.64126" lon="4.26959">
        <ele>32</ele>
        <time>2023-01-26T13:57:28+01:00</time>
      </trkpt>
      <trkpt lat="43.64128" lon="4.26928">
        <ele>32</ele>
        <time>2023-01-26T13:57:51+01:00</time>
      </trkpt>
      <trkpt lat="43.6413" lon="4.26897">
        <ele>33</ele>
        <time>2023-01-26T13:58:14+01:00</time>
      </trkpt>
      <trkpt lat="43.6413" lon="4.26865">
        <ele>36</ele>
        <time>2023-01-26T13:58:35+01:00</time>
      </trkpt>
      <trkpt lat="43.64132" lon="4.26833">
        <ele>35</ele>
        <time>2023-01-26T13:58:56+01:00</time>
      </trkpt>
      <trkpt lat="43.64135" lon="4.26801">
        <ele>36</ele>
        <time>2023-01-26T13:59:17+01:00</time>
      </trkpt>
      <trkpt lat="43.64136" lon="4.26769">
        <ele>37</ele>
        <time>2023-01-26T13:59:40+01:00</time>
      </trkpt>
      <trkpt lat="43.64138" lon="4.26737">
        <ele>36</ele>
        <time>2023-01-26T14:00:01+01:00</time>
      </trkpt>
      <trkpt lat="43.64139" lon="4.26705">
        <ele>38</ele>
        <time>2023-01-26T14:00:24+01:00</time>
      </trkpt>
      <trkpt lat="43.64138" lon="4.26674">
        <ele>35</ele>
        <time>2023-01-26T14:00:49+01:00</time>
      </trkpt>
      <trkpt lat="43.64139" lon="4.26641">
        <ele>34</ele>
        <time>2023-01-26T14:01:12+01:00</time>
      </trkpt>
      <trkpt lat="43.6414" lon="4.26609">
        <ele>34</ele>
        <time>2023-01-26T14:01:35+01:00</time>
      </trkpt>
      <trkpt lat="43.64143" lon="4.26578">
        <ele>32</ele>
        <time>2023-01-26T14:01:58+01:00</time>
      </trkpt>
      <trkpt lat="43.64151" lon="4.26548">
        <ele>34</ele>
        <time>2023-01-26T14:02:26+01:00</time>
      </trkpt>
      <trkpt lat="43.64171" lon="4.26532">
        <ele>37</ele>
        <time>2023-01-26T14:02:50+01:00</time>
      </trkpt>
      <trkpt lat="43.64192" lon="4.26518">
        <ele>39</ele>
        <time>2023-01-26T14:03:15+01:00</time>
      </trkpt>
      <trkpt lat="43.64204" lon="4.2649">
        <ele>40</ele>
        <time>2023-01-26T14:03:34+01:00</time>
      </trkpt>
      <trkpt lat="43.64207" lon="4.26458">
        <ele>37</ele>
        <time>2023-01-26T14:03:54+01:00</time>
      </trkpt>
      <trkpt lat="43.64206" lon="4.26426">
        <ele>33</ele>
        <time>2023-01-26T14:04:15+01:00</time>
      </trkpt>
      <trkpt lat="43.64205" lon="4.26393">
        <ele>30</ele>
        <time>2023-01-26T14:04:36+01:00</time>
      </trkpt>
      <trkpt lat="43.64214" lon="4.26365">
        <ele>29</ele>
        <time>2023-01-26T14:04:57+01:00</time>
      </trkpt>
      <trkpt lat="43.64222" lon="4.26334">
        <ele>31</ele>
        <time>2023-01-26T14:05:19+01:00</time>
      </trkpt>
      <trkpt lat="43.64227" lon="4.26303">
        <ele>30</ele>
        <time>2023-01-26T14:05:41+01:00</time>
      </trkpt>
      <trkpt lat="43.64229" lon="4.26272">
        <ele>30</ele>
        <time>2023-01-26T14:06:02+01:00</time>
      </trkpt>
      <trkpt lat="43.64231" lon="4.26241">
        <ele>30</ele>
        <time>2023-01-26T14:06:24+01:00</time>
      </trkpt>
      <trkpt lat="43.64232" lon="4.26208">
        <ele>31</ele>
        <time>2023-01-26T14:06:45+01:00</time>
      </trkpt>
      <trkpt lat="43.64233" lon="4.26176">
        <ele>29</ele>
        <time>2023-01-26T14:07:07+01:00</time>
      </trkpt>
      <trkpt lat="43.64231" lon="4.26145">
        <ele>31</ele>
        <time>2023-01-26T14:07:30+01:00</time>
      </trkpt>
      <trkpt lat="43.64223" lon="4.26115">
        <ele>29</ele>
        <time>2023-01-26T14:07:52+01:00</time>
      </trkpt>
      <trkpt lat="43.64215" lon="4.26085">
        <ele>29</ele>
        <time>2023-01-26T14:08:13+01:00</time>
      </trkpt>
      <trkpt lat="43.64208" lon="4.26054">
        <ele>30</ele>
        <time>2023-01-26T14:08:34+01:00</time>
      </trkpt>
      <trkpt lat="43.64198" lon="4.25993">
        <ele>28</ele>
        <time>2023-01-26T14:09:14+01:00</time>
      </trkpt>
      <trkpt lat="43.64194" lon="4.25961">
        <ele>29</ele>
        <time>2023-01-26T14:09:35+01:00</time>
      </trkpt>
      <trkpt lat="43.64195" lon="4.25929">
        <ele>29</ele>
        <time>2023-01-26T14:09:56+01:00</time>
      </trkpt>
      <trkpt lat="43.64204" lon="4.259">
        <ele>29</ele>
        <time>2023-01-26T14:10:19+01:00</time>
      </trkpt>
      <trkpt lat="43.64213" lon="4.2587">
        <ele>31</ele>
        <time>2023-01-26T14:10:40+01:00</time>
      </trkpt>
      <trkpt lat="43.64222" lon="4.25841">
        <ele>30</ele>
        <time>2023-01-26T14:11:01+01:00</time>
      </trkpt>
      <trkpt lat="43.64229" lon="4.25811">
        <ele>32</ele>
        <time>2023-01-26T14:11:23+01:00</time>
      </trkpt>
      <trkpt lat="43.64232" lon="4.25749">
        <ele>30</ele>
        <time>2023-01-26T14:12:05+01:00</time>
      </trkpt>
      <trkpt lat="43.6423" lon="4.25717">
        <ele>31</ele>
        <time>2023-01-26T14:12:28+01:00</time>
      </trkpt>
      <trkpt lat="43.6423" lon="4.25686">
        <ele>29</ele>
        <time>2023-01-26T14:12:50+01:00</time>
      </trkpt>
      <trkpt lat="43.64229" lon="4.25653">
        <ele>30</ele>
        <time>2023-01-26T14:13:13+01:00</time>
      </trkpt>
      <trkpt lat="43.64228" lon="4.25622">
        <ele>29</ele>
        <time>2023-01-26T14:13:35+01:00</time>
      </trkpt>
      <trkpt lat="43.64221" lon="4.25562">
        <ele>32</ele>
        <time>2023-01-26T14:18:37+01:00</time>
      </trkpt>
      <trkpt lat="43.64204" lon="4.2554">
        <ele>31</ele>
        <time>2023-01-26T14:19:01+01:00</time>
      </trkpt>
      <trkpt lat="43.64189" lon="4.25517">
        <ele>30</ele>
        <time>2023-01-26T14:19:24+01:00</time>
      </trkpt>
      <trkpt lat="43.64174" lon="4.25493">
        <ele>30</ele>
        <time>2023-01-26T14:19:47+01:00</time>
      </trkpt>
      <trkpt lat="43.64153" lon="4.25478">
        <ele>30</ele>
        <time>2023-01-26T14:20:28+01:00</time>
      </trkpt>
      <trkpt lat="43.64136" lon="4.25457">
        <ele>30</ele>
        <time>2023-01-26T14:20:49+01:00</time>
      </trkpt>
      <trkpt lat="43.64118" lon="4.25437">
        <ele>30</ele>
        <time>2023-01-26T14:21:10+01:00</time>
      </trkpt>
      <trkpt lat="43.641" lon="4.25416">
        <ele>32</ele>
        <time>2023-01-26T14:21:29+01:00</time>
      </trkpt>
      <trkpt lat="43.64081" lon="4.25398">
        <ele>28</ele>
        <time>2023-01-26T14:21:51+01:00</time>
      </trkpt>
      <trkpt lat="43.64058" lon="4.25403">
        <ele>27</ele>
        <time>2023-01-26T14:22:15+01:00</time>
      </trkpt>
      <trkpt lat="43.64036" lon="4.25398">
        <ele>26</ele>
        <time>2023-01-26T14:22:39+01:00</time>
      </trkpt>
      <trkpt lat="43.64061" lon="4.2535">
        <ele>21</ele>
        <time>2023-01-26T14:23:47+01:00</time>
      </trkpt>
      <trkpt lat="43.64079" lon="4.25332">
        <ele>25</ele>
        <time>2023-01-26T14:24:13+01:00</time>
      </trkpt>
      <trkpt lat="43.64101" lon="4.25324">
        <ele>24</ele>
        <time>2023-01-26T14:24:34+01:00</time>
      </trkpt>
      <trkpt lat="43.64123" lon="4.25319">
        <ele>25</ele>
        <time>2023-01-26T14:24:53+01:00</time>
      </trkpt>
      <trkpt lat="43.64146" lon="4.25312">
        <ele>21</ele>
        <time>2023-01-26T14:25:15+01:00</time>
      </trkpt>
      <trkpt lat="43.64167" lon="4.25301">
        <ele>21</ele>
        <time>2023-01-26T14:25:34+01:00</time>
      </trkpt>
      <trkpt lat="43.64188" lon="4.25288">
        <ele>20</ele>
        <time>2023-01-26T14:25:53+01:00</time>
      </trkpt>
      <trkpt lat="43.6421" lon="4.25281">
        <ele>19</ele>
        <time>2023-01-26T14:26:12+01:00</time>
      </trkpt>
      <trkpt lat="43.64233" lon="4.25277">
        <ele>17</ele>
        <time>2023-01-26T14:26:32+01:00</time>
      </trkpt>
      <trkpt lat="43.64257" lon="4.25277">
        <ele>15</ele>
        <time>2023-01-26T14:26:52+01:00</time>
      </trkpt>
      <trkpt lat="43.6428" lon="4.25274">
        <ele>17</ele>
        <time>2023-01-26T14:27:10+01:00</time>
      </trkpt>
      <trkpt lat="43.64303" lon="4.25273">
        <ele>14</ele>
        <time>2023-01-26T14:27:30+01:00</time>
      </trkpt>
      <trkpt lat="43.64326" lon="4.25271">
        <ele>11</ele>
        <time>2023-01-26T14:27:51+01:00</time>
      </trkpt>
      <trkpt lat="43.64349" lon="4.2527">
        <ele>12</ele>
        <time>2023-01-26T14:28:11+01:00</time>
      </trkpt>
      <trkpt lat="43.64371" lon="4.25264">
        <ele>13</ele>
        <time>2023-01-26T14:28:32+01:00</time>
      </trkpt>
      <trkpt lat="43.64393" lon="4.25254">
        <ele>11</ele>
        <time>2023-01-26T14:28:53+01:00</time>
      </trkpt>
      <trkpt lat="43.64389" lon="4.25224">
        <ele>7</ele>
        <time>2023-01-26T14:29:15+01:00</time>
      </trkpt>
      <trkpt lat="43.64375" lon="4.25199">
        <ele>6</ele>
        <time>2023-01-26T14:29:35+01:00</time>
      </trkpt>
      <trkpt lat="43.64363" lon="4.25171">
        <ele>11</ele>
        <time>2023-01-26T14:29:59+01:00</time>
      </trkpt>
      <trkpt lat="43.64348" lon="4.25147">
        <ele>16</ele>
        <time>2023-01-26T14:30:20+01:00</time>
      </trkpt>
      <trkpt lat="43.64332" lon="4.25122">
        <ele>17</ele>
        <time>2023-01-26T14:30:41+01:00</time>
      </trkpt>
      <trkpt lat="43.64322" lon="4.25094">
        <ele>15</ele>
        <time>2023-01-26T14:31:05+01:00</time>
      </trkpt>
      <trkpt lat="43.64306" lon="4.25072">
        <ele>13</ele>
        <time>2023-01-26T14:31:24+01:00</time>
      </trkpt>
      <trkpt lat="43.64291" lon="4.25048">
        <ele>10</ele>
        <time>2023-01-26T14:31:43+01:00</time>
      </trkpt>
      <trkpt lat="43.64278" lon="4.25022">
        <ele>10</ele>
        <time>2023-01-26T14:32:04+01:00</time>
      </trkpt>
      <trkpt lat="43.64264" lon="4.24997">
        <ele>9</ele>
        <time>2023-01-26T14:32:26+01:00</time>
      </trkpt>
      <trkpt lat="43.6425" lon="4.24972">
        <ele>7</ele>
        <time>2023-01-26T14:32:48+01:00</time>
      </trkpt>
      <trkpt lat="43.64236" lon="4.24946">
        <ele>7</ele>
        <time>2023-01-26T14:33:11+01:00</time>
      </trkpt>
      <trkpt lat="43.64221" lon="4.24923">
        <ele>5</ele>
        <time>2023-01-26T14:33:32+01:00</time>
      </trkpt>
      <trkpt lat="43.64208" lon="4.24895">
        <ele>6</ele>
        <time>2023-01-26T14:33:52+01:00</time>
      </trkpt>
      <trkpt lat="43.64207" lon="4.24864">
        <ele>10</ele>
        <time>2023-01-26T14:34:16+01:00</time>
      </trkpt>
      <trkpt lat="43.64217" lon="4.24835">
        <ele>12</ele>
        <time>2023-01-26T14:34:42+01:00</time>
      </trkpt>
      <trkpt lat="43.64226" lon="4.24806">
        <ele>8</ele>
        <time>2023-01-26T14:35:02+01:00</time>
      </trkpt>
      <trkpt lat="43.64233" lon="4.24775">
        <ele>5</ele>
        <time>2023-01-26T14:35:24+01:00</time>
      </trkpt>
      <trkpt lat="43.64242" lon="4.24745">
        <ele>4</ele>
        <time>2023-01-26T14:35:44+01:00</time>
      </trkpt>
      <trkpt lat="43.64251" lon="4.24715">
        <ele>5</ele>
        <time>2023-01-26T14:36:05+01:00</time>
      </trkpt>
      <trkpt lat="43.64258" lon="4.24685">
        <ele>3</ele>
        <time>2023-01-26T14:36:27+01:00</time>
      </trkpt>
      <trkpt lat="43.64258" lon="4.24653">
        <ele>6</ele>
        <time>2023-01-26T14:36:51+01:00</time>
      </trkpt>
      <trkpt lat="43.64237" lon="4.24638">
        <ele>11</ele>
        <time>2023-01-26T14:37:16+01:00</time>
      </trkpt>
      <trkpt lat="43.64217" lon="4.24623">
        <ele>11</ele>
        <time>2023-01-26T14:37:37+01:00</time>
      </trkpt>
      <trkpt lat="43.64195" lon="4.2461">
        <ele>11</ele>
        <time>2023-01-26T14:37:59+01:00</time>
      </trkpt>
      <trkpt lat="43.64174" lon="4.24596">
        <ele>11</ele>
        <time>2023-01-26T14:38:20+01:00</time>
      </trkpt>
      <trkpt lat="43.64153" lon="4.24584">
        <ele>10</ele>
        <time>2023-01-26T14:38:41+01:00</time>
      </trkpt>
      <trkpt lat="43.64132" lon="4.24571">
        <ele>13</ele>
        <time>2023-01-26T14:39:02+01:00</time>
      </trkpt>
      <trkpt lat="43.64111" lon="4.24557">
        <ele>11</ele>
        <time>2023-01-26T14:39:23+01:00</time>
      </trkpt>
      <trkpt lat="43.64091" lon="4.24543">
        <ele>9</ele>
        <time>2023-01-26T14:39:44+01:00</time>
      </trkpt>
      <trkpt lat="43.64068" lon="4.24533">
        <ele>9</ele>
        <time>2023-01-26T14:40:06+01:00</time>
      </trkpt>
      <trkpt lat="43.64047" lon="4.2452">
        <ele>11</ele>
        <time>2023-01-26T14:40:31+01:00</time>
      </trkpt>
      <trkpt lat="43.64026" lon="4.24505">
        <ele>9</ele>
        <time>2023-01-26T14:43:32+01:00</time>
      </trkpt>
      <trkpt lat="43.64004" lon="4.24495">
        <ele>11</ele>
        <time>2023-01-26T14:43:49+01:00</time>
      </trkpt>
      <trkpt lat="43.63982" lon="4.24482">
        <ele>15</ele>
        <time>2023-01-26T14:44:09+01:00</time>
      </trkpt>
      <trkpt lat="43.63961" lon="4.2447">
        <ele>15</ele>
        <time>2023-01-26T14:44:27+01:00</time>
      </trkpt>
      <trkpt lat="43.63941" lon="4.24454">
        <ele>13</ele>
        <time>2023-01-26T14:44:46+01:00</time>
      </trkpt>
      <trkpt lat="43.6392" lon="4.24442">
        <ele>13</ele>
        <time>2023-01-26T14:45:12+01:00</time>
      </trkpt>
      <trkpt lat="43.639" lon="4.24429">
        <ele>15</ele>
        <time>2023-01-26T14:47:05+01:00</time>
      </trkpt>
      <trkpt lat="43.63878" lon="4.24421">
        <ele>18</ele>
        <time>2023-01-26T14:47:32+01:00</time>
      </trkpt>
      <trkpt lat="43.63856" lon="4.24411">
        <ele>18</ele>
        <time>2023-01-26T14:47:52+01:00</time>
      </trkpt>
      <trkpt lat="43.63837" lon="4.24392">
        <ele>18</ele>
        <time>2023-01-26T14:48:22+01:00</time>
      </trkpt>
      <trkpt lat="43.63816" lon="4.24381">
        <ele>16</ele>
        <time>2023-01-26T14:48:44+01:00</time>
      </trkpt>
      <trkpt lat="43.63795" lon="4.24369">
        <ele>13</ele>
        <time>2023-01-26T14:49:09+01:00</time>
      </trkpt>
      <trkpt lat="43.63774" lon="4.24357">
        <ele>10</ele>
        <time>2023-01-26T14:49:30+01:00</time>
      </trkpt>
      <trkpt lat="43.63754" lon="4.24339">
        <ele>9</ele>
        <time>2023-01-26T14:49:59+01:00</time>
      </trkpt>
      <trkpt lat="43.63733" lon="4.24327">
        <ele>8</ele>
        <time>2023-01-26T14:50:19+01:00</time>
      </trkpt>
      <trkpt lat="43.63712" lon="4.24316">
        <ele>9</ele>
        <time>2023-01-26T14:50:39+01:00</time>
      </trkpt>
      <trkpt lat="43.6369" lon="4.24305">
        <ele>10</ele>
        <time>2023-01-26T14:51:01+01:00</time>
      </trkpt>
      <trkpt lat="43.6367" lon="4.24288">
        <ele>8</ele>
        <time>2023-01-26T14:51:22+01:00</time>
      </trkpt>
      <trkpt lat="43.63648" lon="4.24279">
        <ele>10</ele>
        <time>2023-01-26T14:51:43+01:00</time>
      </trkpt>
      <trkpt lat="43.63627" lon="4.24264">
        <ele>9</ele>
        <time>2023-01-26T14:52:04+01:00</time>
      </trkpt>
      <trkpt lat="43.63607" lon="4.24249">
        <ele>9</ele>
        <time>2023-01-26T14:52:23+01:00</time>
      </trkpt>
      <trkpt lat="43.63586" lon="4.24234">
        <ele>7</ele>
        <time>2023-01-26T14:52:44+01:00</time>
      </trkpt>
      <trkpt lat="43.63564" lon="4.24223">
        <ele>6</ele>
        <time>2023-01-26T14:53:05+01:00</time>
      </trkpt>
      <trkpt lat="43.63543" lon="4.24211">
        <ele>6</ele>
        <time>2023-01-26T14:53:30+01:00</time>
      </trkpt>
      <trkpt lat="43.63553" lon="4.24182">
        <ele>12</ele>
        <time>2023-01-26T14:54:01+01:00</time>
      </trkpt>
      <trkpt lat="43.63574" lon="4.24193">
        <ele>19</ele>
        <time>2023-01-26T14:54:28+01:00</time>
      </trkpt>
      <trkpt lat="43.63596" lon="4.24205">
        <ele>18</ele>
        <time>2023-01-26T14:54:50+01:00</time>
      </trkpt>
      <trkpt lat="43.63618" lon="4.24203">
        <ele>11</ele>
        <time>2023-01-26T14:59:16+01:00</time>
      </trkpt>
      <trkpt lat="43.63641" lon="4.24198">
        <ele>13</ele>
        <time>2023-01-26T14:59:46+01:00</time>
      </trkpt>
      <trkpt lat="43.63664" lon="4.24201">
        <ele>15</ele>
        <time>2023-01-26T15:00:10+01:00</time>
      </trkpt>
      <trkpt lat="43.63686" lon="4.24203">
        <ele>12</ele>
        <time>2023-01-26T15:00:32+01:00</time>
      </trkpt>
      <trkpt lat="43.6371" lon="4.24204">
        <ele>14</ele>
        <time>2023-01-26T15:00:53+01:00</time>
      </trkpt>
      <trkpt lat="43.63733" lon="4.24207">
        <ele>16</ele>
        <time>2023-01-26T15:01:19+01:00</time>
      </trkpt>
      <trkpt lat="43.63756" lon="4.24212">
        <ele>13</ele>
        <time>2023-01-26T15:01:37+01:00</time>
      </trkpt>
      <trkpt lat="43.63779" lon="4.24214">
        <ele>13</ele>
        <time>2023-01-26T15:01:57+01:00</time>
      </trkpt>
      <trkpt lat="43.63801" lon="4.2422">
        <ele>12</ele>
        <time>2023-01-26T15:02:18+01:00</time>
      </trkpt>
      <trkpt lat="43.63824" lon="4.24223">
        <ele>12</ele>
        <time>2023-01-26T15:02:41+01:00</time>
      </trkpt>
      <trkpt lat="43.63846" lon="4.24229">
        <ele>9</ele>
        <time>2023-01-26T15:03:00+01:00</time>
      </trkpt>
      <trkpt lat="43.6387" lon="4.24234">
        <ele>8</ele>
        <time>2023-01-26T15:03:20+01:00</time>
      </trkpt>
      <trkpt lat="43.63892" lon="4.24243">
        <ele>9</ele>
        <time>2023-01-26T15:03:41+01:00</time>
      </trkpt>
      <trkpt lat="43.63915" lon="4.24248">
        <ele>10</ele>
        <time>2023-01-26T15:04:04+01:00</time>
      </trkpt>
      <trkpt lat="43.63936" lon="4.2426">
        <ele>11</ele>
        <time>2023-01-26T15:04:25+01:00</time>
      </trkpt>
      <trkpt lat="43.63958" lon="4.24272">
        <ele>16</ele>
        <time>2023-01-26T15:04:46+01:00</time>
      </trkpt>
      <trkpt lat="43.63978" lon="4.24286">
        <ele>17</ele>
        <time>2023-01-26T15:05:06+01:00</time>
      </trkpt>
      <trkpt lat="43.64" lon="4.24295">
        <ele>16</ele>
        <time>2023-01-26T15:05:28+01:00</time>
      </trkpt>
      <trkpt lat="43.64023" lon="4.24299">
        <ele>16</ele>
        <time>2023-01-26T15:05:50+01:00</time>
      </trkpt>
      <trkpt lat="43.64046" lon="4.24304">
        <ele>20</ele>
        <time>2023-01-26T15:06:10+01:00</time>
      </trkpt>
      <trkpt lat="43.64069" lon="4.24301">
        <ele>21</ele>
        <time>2023-01-26T15:06:35+01:00</time>
      </trkpt>
      <trkpt lat="43.64091" lon="4.24296">
        <ele>22</ele>
        <time>2023-01-26T15:06:57+01:00</time>
      </trkpt>
      <trkpt lat="43.64113" lon="4.24283">
        <ele>28</ele>
        <time>2023-01-26T15:07:25+01:00</time>
      </trkpt>
      <trkpt lat="43.64134" lon="4.2427">
        <ele>31</ele>
        <time>2023-01-26T15:07:46+01:00</time>
      </trkpt>
      <trkpt lat="43.64156" lon="4.24263">
        <ele>29</ele>
        <time>2023-01-26T15:08:07+01:00</time>
      </trkpt>
      <trkpt lat="43.64176" lon="4.24276">
        <ele>25</ele>
        <time>2023-01-26T15:08:23+01:00</time>
      </trkpt>
      <trkpt lat="43.64198" lon="4.24287">
        <ele>16</ele>
        <time>2023-01-26T15:08:43+01:00</time>
      </trkpt>
      <trkpt lat="43.6422" lon="4.24293">
        <ele>14</ele>
        <time>2023-01-26T15:09:07+01:00</time>
      </trkpt>
      <trkpt lat="43.64243" lon="4.24298">
        <ele>15</ele>
        <time>2023-01-26T15:09:26+01:00</time>
      </trkpt>
      <trkpt lat="43.64266" lon="4.24305">
        <ele>16</ele>
        <time>2023-01-26T15:09:48+01:00</time>
      </trkpt>
      <trkpt lat="43.64288" lon="4.24311">
        <ele>16</ele>
        <time>2023-01-26T15:10:12+01:00</time>
      </trkpt>
      <trkpt lat="43.64311" lon="4.24316">
        <ele>18</ele>
        <time>2023-01-26T15:10:34+01:00</time>
      </trkpt>
      <trkpt lat="43.64333" lon="4.24322">
        <ele>20</ele>
        <time>2023-01-26T15:10:57+01:00</time>
      </trkpt>
      <trkpt lat="43.64355" lon="4.24317">
        <ele>20</ele>
        <time>2023-01-26T15:11:17+01:00</time>
      </trkpt>
      <trkpt lat="43.64379" lon="4.24315">
        <ele>16</ele>
        <time>2023-01-26T15:11:36+01:00</time>
      </trkpt>
      <trkpt lat="43.64401" lon="4.24318">
        <ele>13</ele>
        <time>2023-01-26T15:11:59+01:00</time>
      </trkpt>
      <trkpt lat="43.64425" lon="4.24314">
        <ele>15</ele>
        <time>2023-01-26T15:12:20+01:00</time>
      </trkpt>
      <trkpt lat="43.64448" lon="4.24312">
        <ele>21</ele>
        <time>2023-01-26T15:12:45+01:00</time>
      </trkpt>
      <trkpt lat="43.64471" lon="4.24317">
        <ele>22</ele>
        <time>2023-01-26T15:13:04+01:00</time>
      </trkpt>
      <trkpt lat="43.64494" lon="4.24322">
        <ele>24</ele>
        <time>2023-01-26T15:13:31+01:00</time>
      </trkpt>
      <trkpt lat="43.64517" lon="4.24324">
        <ele>24</ele>
        <time>2023-01-26T15:13:56+01:00</time>
      </trkpt>
      <trkpt lat="43.64539" lon="4.24328">
        <ele>18</ele>
        <time>2023-01-26T15:14:17+01:00</time>
      </trkpt>
      <trkpt lat="43.64563" lon="4.24329">
        <ele>12</ele>
        <time>2023-01-26T15:14:37+01:00</time>
      </trkpt>
      <trkpt lat="43.64586" lon="4.24329">
        <ele>10</ele>
        <time>2023-01-26T15:14:57+01:00</time>
      </trkpt>
      <trkpt lat="43.64608" lon="4.24331">
        <ele>10</ele>
        <time>2023-01-26T15:15:16+01:00</time>
      </trkpt>
      <trkpt lat="43.64631" lon="4.24332">
        <ele>10</ele>
        <time>2023-01-26T15:15:37+01:00</time>
      </trkpt>
      <trkpt lat="43.64654" lon="4.24326">
        <ele>10</ele>
        <time>2023-01-26T15:16:02+01:00</time>
      </trkpt>
      <trkpt lat="43.64676" lon="4.24316">
        <ele>9</ele>
        <time>2023-01-26T15:16:23+01:00</time>
      </trkpt>
      <trkpt lat="43.64698" lon="4.24306">
        <ele>11</ele>
        <time>2023-01-26T15:16:45+01:00</time>
      </trkpt>
      <trkpt lat="43.64719" lon="4.24291">
        <ele>12</ele>
        <time>2023-01-26T15:17:06+01:00</time>
      </trkpt>
      <trkpt lat="43.64737" lon="4.24272">
        <ele>10</ele>
        <time>2023-01-26T15:17:28+01:00</time>
      </trkpt>
      <trkpt lat="43.64757" lon="4.24256">
        <ele>11</ele>
        <time>2023-01-26T15:17:48+01:00</time>
      </trkpt>
      <trkpt lat="43.64778" lon="4.24241">
        <ele>11</ele>
        <time>2023-01-26T15:18:09+01:00</time>
      </trkpt>
      <trkpt lat="43.64796" lon="4.24223">
        <ele>10</ele>
        <time>2023-01-26T15:18:29+01:00</time>
      </trkpt>
      <trkpt lat="43.64813" lon="4.24202">
        <ele>12</ele>
        <time>2023-01-26T15:18:52+01:00</time>
      </trkpt>
      <trkpt lat="43.64831" lon="4.24182">
        <ele>15</ele>
        <time>2023-01-26T15:19:16+01:00</time>
      </trkpt>
      <trkpt lat="43.6485" lon="4.24165">
        <ele>13</ele>
        <time>2023-01-26T15:19:37+01:00</time>
      </trkpt>
      <trkpt lat="43.64872" lon="4.24153">
        <ele>14</ele>
        <time>2023-01-26T15:19:57+01:00</time>
      </trkpt>
      <trkpt lat="43.64892" lon="4.24139">
        <ele>14</ele>
        <time>2023-01-26T15:20:19+01:00</time>
      </trkpt>
      <trkpt lat="43.6491" lon="4.24121">
        <ele>14</ele>
        <time>2023-01-26T15:20:40+01:00</time>
      </trkpt>
      <trkpt lat="43.6493" lon="4.24106">
        <ele>12</ele>
        <time>2023-01-26T15:20:59+01:00</time>
      </trkpt>
      <trkpt lat="43.64949" lon="4.24089">
        <ele>11</ele>
        <time>2023-01-26T15:21:20+01:00</time>
      </trkpt>
      <trkpt lat="43.6497" lon="4.24074">
        <ele>11</ele>
        <time>2023-01-26T15:21:38+01:00</time>
      </trkpt>
      <trkpt lat="43.6499" lon="4.2406">
        <ele>10</ele>
        <time>2023-01-26T15:21:59+01:00</time>
      </trkpt>
      <trkpt lat="43.65011" lon="4.24046">
        <ele>9</ele>
        <time>2023-01-26T15:22:20+01:00</time>
      </trkpt>
      <trkpt lat="43.65033" lon="4.24034">
        <ele>10</ele>
        <time>2023-01-26T15:22:41+01:00</time>
      </trkpt>
      <trkpt lat="43.65054" lon="4.24021">
        <ele>9</ele>
        <time>2023-01-26T15:23:01+01:00</time>
      </trkpt>
      <trkpt lat="43.65074" lon="4.24005">
        <ele>9</ele>
        <time>2023-01-26T15:23:23+01:00</time>
      </trkpt>
      <trkpt lat="43.65094" lon="4.23989">
        <ele>10</ele>
        <time>2023-01-26T15:23:44+01:00</time>
      </trkpt>
      <trkpt lat="43.65114" lon="4.23973">
        <ele>11</ele>
        <time>2023-01-26T15:24:06+01:00</time>
      </trkpt>
      <trkpt lat="43.65132" lon="4.23955">
        <ele>10</ele>
        <time>2023-01-26T15:24:25+01:00</time>
      </trkpt>
      <trkpt lat="43.65151" lon="4.23936">
        <ele>11</ele>
        <time>2023-01-26T15:24:47+01:00</time>
      </trkpt>
      <trkpt lat="43.6517" lon="4.23916">
        <ele>10</ele>
        <time>2023-01-26T15:25:08+01:00</time>
      </trkpt>
      <trkpt lat="43.65188" lon="4.23899">
        <ele>11</ele>
        <time>2023-01-26T15:25:29+01:00</time>
      </trkpt>
      <trkpt lat="43.65207" lon="4.2388">
        <ele>9</ele>
        <time>2023-01-26T15:25:50+01:00</time>
      </trkpt>
      <trkpt lat="43.65226" lon="4.23862">
        <ele>8</ele>
        <time>2023-01-26T15:26:10+01:00</time>
      </trkpt>
      <trkpt lat="43.65245" lon="4.23844">
        <ele>8</ele>
        <time>2023-01-26T15:26:31+01:00</time>
      </trkpt>
      <trkpt lat="43.65265" lon="4.23826">
        <ele>9</ele>
        <time>2023-01-26T15:26:54+01:00</time>
      </trkpt>
      <trkpt lat="43.65283" lon="4.23806">
        <ele>8</ele>
        <time>2023-01-26T15:27:16+01:00</time>
      </trkpt>
      <trkpt lat="43.65302" lon="4.23789">
        <ele>9</ele>
        <time>2023-01-26T15:27:37+01:00</time>
      </trkpt>
      <trkpt lat="43.65321" lon="4.23772">
        <ele>9</ele>
        <time>2023-01-26T15:28:02+01:00</time>
      </trkpt>
      <trkpt lat="43.65342" lon="4.23759">
        <ele>8</ele>
        <time>2023-01-26T15:28:24+01:00</time>
      </trkpt>
      <trkpt lat="43.65364" lon="4.23749">
        <ele>7</ele>
        <time>2023-01-26T15:28:45+01:00</time>
      </trkpt>
      <trkpt lat="43.65385" lon="4.23739">
        <ele>8</ele>
        <time>2023-01-26T15:29:07+01:00</time>
      </trkpt>
      <trkpt lat="43.65408" lon="4.23734">
        <ele>6</ele>
        <time>2023-01-26T15:29:29+01:00</time>
      </trkpt>
      <trkpt lat="43.65431" lon="4.23731">
        <ele>10</ele>
        <time>2023-01-26T15:29:50+01:00</time>
      </trkpt>
      <trkpt lat="43.65454" lon="4.23727">
        <ele>7</ele>
        <time>2023-01-26T15:30:13+01:00</time>
      </trkpt>
      <trkpt lat="43.65477" lon="4.23722">
        <ele>9</ele>
        <time>2023-01-26T15:30:37+01:00</time>
      </trkpt>
      <trkpt lat="43.655" lon="4.23719">
        <ele>9</ele>
        <time>2023-01-26T15:30:57+01:00</time>
      </trkpt>
      <trkpt lat="43.65523" lon="4.23713">
        <ele>6</ele>
        <time>2023-01-26T15:31:18+01:00</time>
      </trkpt>
      <trkpt lat="43.65546" lon="4.23706">
        <ele>8</ele>
        <time>2023-01-26T15:31:50+01:00</time>
      </trkpt>
      <trkpt lat="43.65568" lon="4.23698">
        <ele>10</ele>
        <time>2023-01-26T15:32:12+01:00</time>
      </trkpt>
      <trkpt lat="43.65591" lon="4.23692">
        <ele>9</ele>
        <time>2023-01-26T15:32:34+01:00</time>
      </trkpt>
      <trkpt lat="43.65613" lon="4.23681">
        <ele>9</ele>
        <time>2023-01-26T15:32:57+01:00</time>
      </trkpt>
      <trkpt lat="43.65634" lon="4.23669">
        <ele>8</ele>
        <time>2023-01-26T15:33:18+01:00</time>
      </trkpt>
      <trkpt lat="43.65656" lon="4.23655">
        <ele>8</ele>
        <time>2023-01-26T15:33:40+01:00</time>
      </trkpt>
      <trkpt lat="43.65676" lon="4.23641">
        <ele>8</ele>
        <time>2023-01-26T15:34:02+01:00</time>
      </trkpt>
      <trkpt lat="43.65697" lon="4.23628">
        <ele>9</ele>
        <time>2023-01-26T15:34:23+01:00</time>
      </trkpt>
      <trkpt lat="43.65717" lon="4.23614">
        <ele>10</ele>
        <time>2023-01-26T15:34:44+01:00</time>
      </trkpt>
      <trkpt lat="43.65737" lon="4.23598">
        <ele>9</ele>
        <time>2023-01-26T15:35:06+01:00</time>
      </trkpt>
      <trkpt lat="43.65757" lon="4.23582">
        <ele>9</ele>
        <time>2023-01-26T15:35:27+01:00</time>
      </trkpt>
      <trkpt lat="43.65777" lon="4.23567">
        <ele>9</ele>
        <time>2023-01-26T15:35:48+01:00</time>
      </trkpt>
      <trkpt lat="43.65797" lon="4.23552">
        <ele>9</ele>
        <time>2023-01-26T15:36:09+01:00</time>
      </trkpt>
      <trkpt lat="43.65817" lon="4.23538">
        <ele>10</ele>
        <time>2023-01-26T15:36:30+01:00</time>
      </trkpt>
      <trkpt lat="43.65838" lon="4.23526">
        <ele>10</ele>
        <time>2023-01-26T15:36:50+01:00</time>
      </trkpt>
      <trkpt lat="43.65859" lon="4.23511">
        <ele>10</ele>
        <time>2023-01-26T15:37:13+01:00</time>
      </trkpt>
      <trkpt lat="43.6588" lon="4.23498">
        <ele>10</ele>
        <time>2023-01-26T15:37:34+01:00</time>
      </trkpt>
      <trkpt lat="43.659" lon="4.23481">
        <ele>11</ele>
        <time>2023-01-26T15:37:56+01:00</time>
      </trkpt>
      <trkpt lat="43.65921" lon="4.23466">
        <ele>10</ele>
        <time>2023-01-26T15:38:17+01:00</time>
      </trkpt>
      <trkpt lat="43.65943" lon="4.23456">
        <ele>9</ele>
        <time>2023-01-26T15:38:38+01:00</time>
      </trkpt>
      <trkpt lat="43.65965" lon="4.23445">
        <ele>9</ele>
        <time>2023-01-26T15:39:00+01:00</time>
      </trkpt>
      <trkpt lat="43.65986" lon="4.23433">
        <ele>10</ele>
        <time>2023-01-26T15:39:22+01:00</time>
      </trkpt>
      <trkpt lat="43.66008" lon="4.23421">
        <ele>8</ele>
        <time>2023-01-26T15:39:43+01:00</time>
      </trkpt>
      <trkpt lat="43.66031" lon="4.23413">
        <ele>6</ele>
        <time>2023-01-26T15:40:10+01:00</time>
      </trkpt>
      <trkpt lat="43.66053" lon="4.23404">
        <ele>8</ele>
        <time>2023-01-26T15:40:32+01:00</time>
      </trkpt>
      <trkpt lat="43.66075" lon="4.23392">
        <ele>9</ele>
        <time>2023-01-26T15:40:52+01:00</time>
      </trkpt>
      <trkpt lat="43.66097" lon="4.23382">
        <ele>10</ele>
        <time>2023-01-26T15:41:13+01:00</time>
      </trkpt>
      <trkpt lat="43.66118" lon="4.23369">
        <ele>9</ele>
        <time>2023-01-26T15:41:33+01:00</time>
      </trkpt>
      <trkpt lat="43.66138" lon="4.23351">
        <ele>9</ele>
        <time>2023-01-26T15:41:54+01:00</time>
      </trkpt>
      <trkpt lat="43.66156" lon="4.23333">
        <ele>9</ele>
        <time>2023-01-26T15:42:14+01:00</time>
      </trkpt>
      <trkpt lat="43.66174" lon="4.23314">
        <ele>9</ele>
        <time>2023-01-26T15:42:35+01:00</time>
      </trkpt>
      <trkpt lat="43.66193" lon="4.23297">
        <ele>9</ele>
        <time>2023-01-26T15:42:58+01:00</time>
      </trkpt>
      <trkpt lat="43.66212" lon="4.23278">
        <ele>10</ele>
        <time>2023-01-26T15:43:22+01:00</time>
      </trkpt>
      <trkpt lat="43.6623" lon="4.23259">
        <ele>10</ele>
        <time>2023-01-26T15:43:44+01:00</time>
      </trkpt>
      <trkpt lat="43.66247" lon="4.23237">
        <ele>10</ele>
        <time>2023-01-26T15:44:06+01:00</time>
      </trkpt>
      <trkpt lat="43.66264" lon="4.23216">
        <ele>11</ele>
        <time>2023-01-26T15:44:28+01:00</time>
      </trkpt>
      <trkpt lat="43.66286" lon="4.23207">
        <ele>11</ele>
        <time>2023-01-26T15:44:50+01:00</time>
      </trkpt>
      <trkpt lat="43.66309" lon="4.23201">
        <ele>12</ele>
        <time>2023-01-26T15:45:11+01:00</time>
      </trkpt>
      <trkpt lat="43.66332" lon="4.23198">
        <ele>10</ele>
        <time>2023-01-26T15:45:32+01:00</time>
      </trkpt>
      <trkpt lat="43.66355" lon="4.23194">
        <ele>9</ele>
        <time>2023-01-26T15:45:52+01:00</time>
      </trkpt>
      <trkpt lat="43.66379" lon="4.23191">
        <ele>9</ele>
        <time>2023-01-26T15:46:13+01:00</time>
      </trkpt>
      <trkpt lat="43.66401" lon="4.23186">
        <ele>9</ele>
        <time>2023-01-26T15:46:33+01:00</time>
      </trkpt>
      <trkpt lat="43.66424" lon="4.23182">
        <ele>10</ele>
        <time>2023-01-26T15:46:54+01:00</time>
      </trkpt>
      <trkpt lat="43.66447" lon="4.23179">
        <ele>10</ele>
        <time>2023-01-26T15:47:14+01:00</time>
      </trkpt>
      <trkpt lat="43.66469" lon="4.23173">
        <ele>10</ele>
        <time>2023-01-26T15:47:36+01:00</time>
      </trkpt>
      <trkpt lat="43.66493" lon="4.23169">
        <ele>9</ele>
        <time>2023-01-26T15:48:00+01:00</time>
      </trkpt>
      <trkpt lat="43.66515" lon="4.23163">
        <ele>9</ele>
        <time>2023-01-26T15:48:22+01:00</time>
      </trkpt>
      <trkpt lat="43.66538" lon="4.23157">
        <ele>9</ele>
        <time>2023-01-26T15:48:43+01:00</time>
      </trkpt>
      <trkpt lat="43.6656" lon="4.23152">
        <ele>9</ele>
        <time>2023-01-26T15:49:03+01:00</time>
      </trkpt>
      <trkpt lat="43.66583" lon="4.23147">
        <ele>9</ele>
        <time>2023-01-26T15:49:24+01:00</time>
      </trkpt>
      <trkpt lat="43.66606" lon="4.23142">
        <ele>9</ele>
        <time>2023-01-26T15:49:46+01:00</time>
      </trkpt>
      <trkpt lat="43.66629" lon="4.23137">
        <ele>9</ele>
        <time>2023-01-26T15:50:07+01:00</time>
      </trkpt>
      <trkpt lat="43.66651" lon="4.23131">
        <ele>8</ele>
        <time>2023-01-26T15:50:28+01:00</time>
      </trkpt>
      <trkpt lat="43.66674" lon="4.23134">
        <ele>8</ele>
        <time>2023-01-26T15:50:50+01:00</time>
      </trkpt>
      <trkpt lat="43.66685" lon="4.23162">
        <ele>7</ele>
        <time>2023-01-26T15:51:12+01:00</time>
      </trkpt>
      <trkpt lat="43.66688" lon="4.23193">
        <ele>7</ele>
        <time>2023-01-26T15:51:35+01:00</time>
      </trkpt>
      <trkpt lat="43.66693" lon="4.23223">
        <ele>7</ele>
        <time>2023-01-26T15:51:57+01:00</time>
      </trkpt>
      <trkpt lat="43.66701" lon="4.23252">
        <ele>7</ele>
        <time>2023-01-26T15:52:19+01:00</time>
      </trkpt>
      <trkpt lat="43.66715" lon="4.23279">
        <ele>5</ele>
        <time>2023-01-26T15:52:41+01:00</time>
      </trkpt>
      <trkpt lat="43.66731" lon="4.23301">
        <ele>4</ele>
        <time>2023-01-26T15:53:01+01:00</time>
      </trkpt>
      <trkpt lat="43.66746" lon="4.23325">
        <ele>4</ele>
        <time>2023-01-26T15:53:23+01:00</time>
      </trkpt>
      <trkpt lat="43.66761" lon="4.23349">
        <ele>1</ele>
        <time>2023-01-26T15:53:44+01:00</time>
      </trkpt>
      <trkpt lat="43.66777" lon="4.23372">
        <ele>2</ele>
        <time>2023-01-26T15:54:05+01:00</time>
      </trkpt>
      <trkpt lat="43.66792" lon="4.23397">
        <ele>2</ele>
        <time>2023-01-26T15:54:26+01:00</time>
      </trkpt>
      <trkpt lat="43.66807" lon="4.23422">
        <ele>2</ele>
        <time>2023-01-26T15:54:47+01:00</time>
      </trkpt>
      <trkpt lat="43.66821" lon="4.23447">
        <ele>2</ele>
        <time>2023-01-26T15:55:08+01:00</time>
      </trkpt>
      <trkpt lat="43.66835" lon="4.23473">
        <ele>2</ele>
        <time>2023-01-26T15:55:30+01:00</time>
      </trkpt>
      <trkpt lat="43.66849" lon="4.23499">
        <ele>1</ele>
        <time>2023-01-26T15:55:51+01:00</time>
      </trkpt>
      <trkpt lat="43.66861" lon="4.23526">
        <ele>4</ele>
        <time>2023-01-26T15:56:12+01:00</time>
      </trkpt>
      <trkpt lat="43.66873" lon="4.23553">
        <ele>3</ele>
        <time>2023-01-26T15:56:33+01:00</time>
      </trkpt>
      <trkpt lat="43.66888" lon="4.23577">
        <ele>4</ele>
        <time>2023-01-26T15:56:55+01:00</time>
      </trkpt>
      <trkpt lat="43.66911" lon="4.23583">
        <ele>4</ele>
        <time>2023-01-26T15:57:17+01:00</time>
      </trkpt>
      <trkpt lat="43.66933" lon="4.23574">
        <ele>4</ele>
        <time>2023-01-26T15:57:38+01:00</time>
      </trkpt>
      <trkpt lat="43.66954" lon="4.23563">
        <ele>3</ele>
        <time>2023-01-26T15:57:59+01:00</time>
      </trkpt>
      <trkpt lat="43.66975" lon="4.23551">
        <ele>2</ele>
        <time>2023-01-26T15:58:20+01:00</time>
      </trkpt>
      <trkpt lat="43.66997" lon="4.23544">
        <ele>1</ele>
        <time>2023-01-26T15:58:41+01:00</time>
      </trkpt>
      <trkpt lat="43.6702" lon="4.23547">
        <ele>1</ele>
        <time>2023-01-26T15:59:01+01:00</time>
      </trkpt>
      <trkpt lat="43.67043" lon="4.23552">
        <ele>4</ele>
        <time>2023-01-26T15:59:23+01:00</time>
      </trkpt>
      <trkpt lat="43.67065" lon="4.23558">
        <ele>7</ele>
        <time>2023-01-26T15:59:46+01:00</time>
      </trkpt>
      <trkpt lat="43.67089" lon="4.23557">
        <ele>7</ele>
        <time>2023-01-26T16:00:06+01:00</time>
      </trkpt>
      <trkpt lat="43.67112" lon="4.23559">
        <ele>3</ele>
        <time>2023-01-26T16:00:31+01:00</time>
      </trkpt>
      <trkpt lat="43.6713" lon="4.2354">
        <ele>1</ele>
        <time>2023-01-26T16:00:57+01:00</time>
      </trkpt>
      <trkpt lat="43.67147" lon="4.23518">
        <ele>3</ele>
        <time>2023-01-26T16:01:20+01:00</time>
      </trkpt>
      <trkpt lat="43.67171" lon="4.23515">
        <ele>3</ele>
        <time>2023-01-26T16:01:42+01:00</time>
      </trkpt>
      <trkpt lat="43.67193" lon="4.23512">
        <ele>7</ele>
        <time>2023-01-26T16:02:14+01:00</time>
      </trkpt>
    </trkseg>
  </trk>
</gpx>